Time;durP1;ratioP1;P1;durP2;ratioP2;P2;SDS_P1;SDS_P2;PMS_P1;PMS_P2;Temp;Humidity;BMP_temperature;BMP_pressure;BME280_temperature;BME280_humidity;BME280_pressure;Samples;Min_cycle;Max_cycle;Signal;HPM_P1;HPM_P2
2023/01/15 00:01:42;;;;;;;0.27;0.27;;;;;;;;;;5067262;28;20692;-74
2023/01/15 00:04:12;;;;;;;0.60;0.10;;;;;;;;;;5061620;28;20199;-74
2023/01/15 00:06:40;;;;;;;0.00;0.00;;;;;;;;;;5055757;28;20207;-74
2023/01/15 00:09:09;;;;;;;0.20;0.10;;;;;;;;;;5062867;28;20734;-74
2023/01/15 00:11:36;;;;;;;1.90;0.20;;;;;;;;;;5067401;28;20207;-73
2023/01/15 00:14:03;;;;;;;0.10;0.10;;;;;;;;;;5062985;28;20666;-73
2023/01/15 00:16:30;;;;;;;0.23;0.10;;;;;;;;;;5052671;28;20204;-74
2023/01/15 00:18:58;;;;;;;0.07;0.07;;;;;;;;;;5050503;28;20200;-73
2023/01/15 00:21:26;;;;;;;2.90;0.20;;;;;;;;;;5054473;28;20203;-73
2023/01/15 00:29:24;;;;;;;0.20;0.20;;;;;;;;;;5051326;28;20708;-73
2023/01/15 00:31:53;;;;;;;0.10;0.10;;;;;;;;;;5051117;28;20852;-73
2023/01/15 00:34:20;;;;;;;0.10;0.10;;;;;;;;;;5066408;28;20696;-74
2023/01/15 00:36:47;;;;;;;0.10;0.10;;;;;;;;;;5052711;28;20207;-73
2023/01/15 00:39:14;;;;;;;0.10;0.10;;;;;;;;;;5051055;28;20224;-73
2023/01/15 00:41:43;;;;;;;0.10;0.10;;;;;;;;;;5067938;28;20211;-73
2023/01/15 00:44:10;;;;;;;0.10;0.10;;;;;;;;;;5055818;28;20214;-73
2023/01/15 00:46:37;;;;;;;0.10;0.10;;;;;;;;;;5068430;28;20206;-74
2023/01/15 00:49:04;;;;;;;0.47;0.20;;;;;;;;;;5066802;28;20633;-72
2023/01/15 00:51:31;;;;;;;0.30;0.23;;;;;;;;;;5058255;28;20206;-71
2023/01/15 00:53:58;;;;;;;0.20;0.20;;;;;;;;;;5060025;28;20226;-73
2023/01/15 00:56:25;;;;;;;0.10;0.10;;;;;;;;;;5050847;28;20310;-73
2023/01/15 00:58:54;;;;;;;0.20;0.13;;;;;;;;;;5062216;28;20622;-73
2023/01/15 01:01:21;;;;;;;0.20;0.10;;;;;;;;;;5054001;28;20674;-73
2023/01/15 01:03:51;;;;;;;0.20;0.20;;;;;;;;;;5061993;28;20213;-73
2023/01/15 01:06:36;;;;;;;0.23;0.23;;;;;;;;;;5063286;28;20242;-73
2023/01/15 01:09:03;;;;;;;0.00;0.00;;;;;;;;;;5052519;28;20215;-74
2023/01/15 01:11:33;;;;;;;0.10;0.10;;;;;;;;;;5064002;28;20230;-74
2023/01/15 01:14:02;;;;;;;0.10;0.10;;;;;;;;;;5044387;28;20284;-74
2023/01/15 01:16:32;;;;;;;0.20;0.20;;;;;;;;;;5063585;28;20299;-74
2023/01/15 01:19:00;;;;;;;0.10;0.10;;;;;;;;;;5059352;28;20214;-74
2023/01/15 01:21:27;;;;;;;1.07;0.23;;;;;;;;;;5059871;28;20203;-74
2023/01/15 01:23:54;;;;;;;1.70;0.50;;;;;;;;;;5059780;28;20212;-74
2023/01/15 01:26:21;;;;;;;1.43;0.27;;;;;;;;;;5051558;28;20207;-73
2023/01/15 01:28:49;;;;;;;0.63;0.20;;;;;;;;;;5054466;28;20207;-74
2023/01/15 01:31:18;;;;;;;0.30;0.10;;;;;;;;;;5053267;28;20762;-73
2023/01/15 01:33:45;;;;;;;2.93;0.20;;;;;;;;;;5050693;28;20212;-73
2023/01/15 01:36:12;;;;;;;0.23;0.13;;;;;;;;;;5058032;28;20195;-74
2023/01/15 01:38:39;;;;;;;0.03;0.03;;;;;;;;;;5051380;28;20329;-74
2023/01/15 01:41:06;;;;;;;0.10;0.10;;;;;;;;;;5052480;28;20266;-74
2023/01/15 01:43:52;;;;;;;0.10;0.10;;;;;;;;;;5064269;28;20225;-74
2023/01/15 01:46:21;;;;;;;0.20;0.10;;;;;;;;;;5065133;28;20219;-73
2023/01/15 01:48:49;;;;;;;0.00;0.00;;;;;;;;;;5066903;28;20203;-73
2023/01/15 01:51:16;;;;;;;0.00;0.00;;;;;;;;;;5053674;28;20207;-73
2023/01/15 01:53:43;;;;;;;0.00;0.00;;;;;;;;;;5060106;28;20236;-71
2023/01/15 01:56:11;;;;;;;0.00;0.00;;;;;;;;;;5064830;28;20635;-71
2023/01/15 01:58:38;;;;;;;0.20;0.10;;;;;;;;;;5053583;28;20200;-71
2023/01/15 02:01:06;;;;;;;0.00;0.00;;;;;;;;;;5055310;28;20233;-71
2023/01/15 02:03:36;;;;;;;0.10;0.10;;;;;;;;;;5062366;28;20211;-72
2023/01/15 02:06:04;;;;;;;0.00;0.00;;;;;;;;;;5057423;28;20215;-72
2023/01/15 02:08:31;;;;;;;0.00;0.00;;;;;;;;;;5056721;28;20253;-72
2023/01/15 02:10:58;;;;;;;0.00;0.00;;;;;;;;;;5053631;28;20234;-72
2023/01/15 02:13:29;;;;;;;0.00;0.00;;;;;;;;;;5058085;28;20606;-72
2023/01/15 02:16:03;;;;;;;0.10;0.10;;;;;;;;;;5072995;28;20211;-72
2023/01/15 02:18:51;;;;;;;0.00;0.00;;;;;;;;;;5069781;28;20334;-72
2023/01/15 02:21:24;;;;;;;0.10;0.10;;;;;;;;;;5054993;28;20234;-72
2023/01/15 02:24:02;;;;;;;0.10;0.10;;;;;;;;;;5072284;28;20207;-72
2023/01/15 02:26:48;;;;;;;3.13;0.10;;;;;;;;;;5056832;28;20261;-72
2023/01/15 02:29:20;;;;;;;0.00;0.00;;;;;;;;;;5065650;28;20550;-72
2023/01/15 02:32:01;;;;;;;0.03;0.03;;;;;;;;;;5056664;28;20677;-73
2023/01/15 02:34:29;;;;;;;0.10;0.10;;;;;;;;;;5055573;28;20241;-72
2023/01/15 02:36:59;;;;;;;0.00;0.00;;;;;;;;;;5052667;28;20200;-72
2023/01/15 02:39:27;;;;;;;0.00;0.00;;;;;;;;;;5052432;28;20211;-72
2023/01/15 02:41:56;;;;;;;0.00;0.00;;;;;;;;;;5066616;28;20424;-73
2023/01/15 02:44:26;;;;;;;0.53;0.20;;;;;;;;;;5056357;28;20295;-72
2023/01/15 02:46:55;;;;;;;1.90;0.20;;;;;;;;;;5057087;28;20201;-72
2023/01/15 02:49:23;;;;;;;0.27;0.27;;;;;;;;;;5053815;28;20264;-72
2023/01/15 02:51:52;;;;;;;0.00;0.00;;;;;;;;;;5058212;28;20192;-72
2023/01/15 02:54:20;;;;;;;0.67;0.00;;;;;;;;;;5060469;28;20203;-72
2023/01/15 02:56:49;;;;;;;0.30;0.00;;;;;;;;;;5072000;28;20241;-72
2023/01/15 02:59:19;;;;;;;0.00;0.00;;;;;;;;;;5062592;28;20207;-72
2023/01/15 03:01:48;;;;;;;2.53;0.10;;;;;;;;;;5067083;28;20220;-72
2023/01/15 03:04:18;;;;;;;0.00;0.00;;;;;;;;;;5059573;28;20215;-72
2023/01/15 03:06:46;;;;;;;0.00;0.00;;;;;;;;;;5058827;28;20203;-73
2023/01/15 03:09:14;;;;;;;0.00;0.00;;;;;;;;;;5070919;28;20261;-72
2023/01/15 03:11:45;;;;;;;0.00;0.00;;;;;;;;;;5071664;28;20248;-72
2023/01/15 03:14:17;;;;;;;0.00;0.00;;;;;;;;;;5071344;28;20218;-72
2023/01/15 03:16:46;;;;;;;0.00;0.00;;;;;;;;;;5051685;28;20424;-72
2023/01/15 03:19:19;;;;;;;0.00;0.00;;;;;;;;;;5051185;28;20206;-72
2023/01/15 03:21:49;;;;;;;0.10;0.10;;;;;;;;;;5051613;28;21022;-72
2023/01/15 03:24:19;;;;;;;1.03;0.10;;;;;;;;;;5051630;28;20231;-72
2023/01/15 03:26:46;;;;;;;0.40;0.00;;;;;;;;;;5051540;28;20208;-72
2023/01/15 03:29:16;;;;;;;0.10;0.10;;;;;;;;;;5051146;28;20249;-72
2023/01/15 03:31:44;;;;;;;0.13;0.03;;;;;;;;;;5051115;28;20273;-72
2023/01/15 03:34:11;;;;;;;0.43;0.20;;;;;;;;;;5058011;28;20207;-72
2023/01/15 03:36:39;;;;;;;0.20;0.20;;;;;;;;;;5067200;28;20659;-72
2023/01/15 03:39:07;;;;;;;0.00;0.00;;;;;;;;;;5066015;28;20226;-72
2023/01/15 03:41:39;;;;;;;0.00;0.00;;;;;;;;;;5059085;28;20238;-72
2023/01/15 03:44:10;;;;;;;0.17;0.10;;;;;;;;;;5070034;28;20260;-71
2023/01/15 03:46:42;;;;;;;0.00;0.00;;;;;;;;;;5070272;28;20254;-72
2023/01/15 03:49:16;;;;;;;0.17;0.10;;;;;;;;;;5069018;28;20218;-72
2023/01/15 03:51:49;;;;;;;0.10;0.10;;;;;;;;;;5057882;28;20225;-72
2023/01/15 03:54:22;;;;;;;0.00;0.00;;;;;;;;;;5069235;28;20210;-72
2023/01/15 03:56:54;;;;;;;0.10;0.10;;;;;;;;;;5067267;28;20227;-72
2023/01/15 03:59:23;;;;;;;0.10;0.10;;;;;;;;;;5050853;28;20659;-72
2023/01/15 04:01:51;;;;;;;0.10;0.10;;;;;;;;;;5059423;28;20631;-72
2023/01/15 04:04:19;;;;;;;0.10;0.10;;;;;;;;;;5070658;28;20627;-72
2023/01/15 04:06:47;;;;;;;0.47;0.10;;;;;;;;;;5062881;28;20229;-73
2023/01/15 04:09:15;;;;;;;0.13;0.13;;;;;;;;;;5069911;28;20211;-72
2023/01/15 04:11:42;;;;;;;0.20;0.20;;;;;;;;;;5066019;28;20269;-72
2023/01/15 04:14:10;;;;;;;3.23;0.40;;;;;;;;;;5068345;28;20673;-72
2023/01/15 04:16:37;;;;;;;0.10;0.10;;;;;;;;;;5054515;28;20203;-74
2023/01/15 04:19:04;;;;;;;0.10;0.10;;;;;;;;;;5068453;28;20213;-72
2023/01/15 04:21:31;;;;;;;0.53;0.00;;;;;;;;;;5069320;28;20230;-73
2023/01/15 04:23:59;;;;;;;0.93;0.13;;;;;;;;;;5069551;28;20220;-72
2023/01/15 04:26:26;;;;;;;0.00;0.00;;;;;;;;;;5053355;28;20232;-73
2023/01/15 04:28:53;;;;;;;0.00;0.00;;;;;;;;;;5070197;28;20272;-73
2023/01/15 04:31:20;;;;;;;0.73;0.10;;;;;;;;;;5049157;28;20200;-73
2023/01/15 04:33:47;;;;;;;0.03;0.03;;;;;;;;;;5050191;28;20214;-73
2023/01/15 04:36:14;;;;;;;1.13;0.30;;;;;;;;;;5049683;28;20215;-73
2023/01/15 04:38:41;;;;;;;0.10;0.10;;;;;;;;;;5050289;28;20671;-73
2023/01/15 04:44:07;;;;;;;0.00;0.00;;;;;;;;;;5049226;28;20210;-73
2023/01/15 04:46:35;;;;;;;0.00;0.00;;;;;;;;;;5049728;28;20582;-73
2023/01/15 04:49:02;;;;;;;0.00;0.00;;;;;;;;;;5049701;28;20200;-73
2023/01/15 04:51:29;;;;;;;0.10;0.10;;;;;;;;;;5063557;28;20235;-73
2023/01/15 04:53:56;;;;;;;0.00;0.00;;;;;;;;;;5059510;28;20199;-73
2023/01/15 04:56:24;;;;;;;0.10;0.10;;;;;;;;;;5051890;28;20224;-73
2023/01/15 04:58:51;;;;;;;0.10;0.10;;;;;;;;;;5050998;28;20265;-73
2023/01/15 05:01:18;;;;;;;0.00;0.00;;;;;;;;;;5049664;28;20228;-73
2023/01/15 05:06:27;;;;;;;0.10;0.10;;;;;;;;;;5057814;28;20230;-73
2023/01/15 05:08:54;;;;;;;0.23;0.17;;;;;;;;;;5057702;28;20227;-74
2023/01/15 05:11:21;;;;;;;0.10;0.00;;;;;;;;;;5067438;28;20234;-73
2023/01/15 05:13:49;;;;;;;0.33;0.10;;;;;;;;;;5068402;28;20206;-73
2023/01/15 05:16:17;;;;;;;0.37;0.13;;;;;;;;;;5064679;28;20222;-75
2023/01/15 05:18:45;;;;;;;0.00;0.00;;;;;;;;;;5068227;28;20207;-73
2023/01/15 05:21:17;;;;;;;0.10;0.10;;;;;;;;;;5051617;28;20222;-73
2023/01/15 05:23:44;;;;;;;0.07;0.07;;;;;;;;;;5055215;28;20211;-73
2023/01/15 05:26:11;;;;;;;0.00;0.00;;;;;;;;;;5049901;28;20691;-73
2023/01/15 05:28:38;;;;;;;0.10;0.10;;;;;;;;;;5062819;28;20207;-74
2023/01/15 05:31:10;;;;;;;0.00;0.00;;;;;;;;;;5066141;28;20210;-73
2023/01/15 05:33:38;;;;;;;0.03;0.03;;;;;;;;;;5056323;28;20207;-73
2023/01/15 05:36:06;;;;;;;0.00;0.00;;;;;;;;;;5065709;28;20700;-73
2023/01/15 05:38:33;;;;;;;0.10;0.10;;;;;;;;;;5067822;28;20206;-73
2023/01/15 05:41:47;;;;;;;0.00;0.00;;;;;;;;;;5070835;28;20700;-73
2023/01/15 05:43:50;;;;;;;0.10;0.10;;;;;;;;;;5070236;28;20673;-73
2023/01/15 05:46:19;;;;;;;0.00;0.00;;;;;;;;;;5071722;28;20203;-73
2023/01/15 05:48:46;;;;;;;0.07;0.07;;;;;;;;;;5061218;28;20203;-73
2023/01/15 05:51:13;;;;;;;0.10;0.10;;;;;;;;;;5067204;28;20200;-73
2023/01/15 05:53:40;;;;;;;0.10;0.10;;;;;;;;;;5071020;28;20202;-73
2023/01/15 05:56:08;;;;;;;0.00;0.00;;;;;;;;;;5071249;28;20229;-73
2023/01/15 05:58:55;;;;;;;0.10;0.10;;;;;;;;;;5064354;28;20203;-73
2023/01/15 06:01:24;;;;;;;0.10;0.10;;;;;;;;;;5066362;28;20219;-73
2023/01/15 06:03:52;;;;;;;0.00;0.00;;;;;;;;;;5067372;28;20207;-73
2023/01/15 06:06:19;;;;;;;0.00;0.00;;;;;;;;;;5065054;28;20215;-73
2023/01/15 06:08:47;;;;;;;0.00;0.00;;;;;;;;;;5054772;28;20226;-73
2023/01/15 06:11:27;;;;;;;0.10;0.10;;;;;;;;;;5065309;28;20235;-73
2023/01/15 06:13:54;;;;;;;0.00;0.00;;;;;;;;;;5062187;28;20268;-73
2023/01/15 06:16:24;;;;;;;0.00;0.00;;;;;;;;;;5055899;28;20212;-73
2023/01/15 06:18:51;;;;;;;0.00;0.00;;;;;;;;;;5067581;28;20548;-73
2023/01/15 06:21:31;;;;;;;0.40;0.10;;;;;;;;;;5053982;28;20281;-73
2023/01/15 06:24:02;;;;;;;0.10;0.10;;;;;;;;;;5063058;28;20302;-73
2023/01/15 06:26:29;;;;;;;0.53;0.10;;;;;;;;;;5072818;28;20206;-73
2023/01/15 06:28:56;;;;;;;0.10;0.10;;;;;;;;;;5067968;28;20210;-73
2023/01/15 06:31:25;;;;;;;0.10;0.10;;;;;;;;;;5068946;28;20237;-73
2023/01/15 06:33:52;;;;;;;0.00;0.00;;;;;;;;;;5052320;28;20380;-73
2023/01/15 06:36:21;;;;;;;0.10;0.00;;;;;;;;;;5052396;28;20208;-73
2023/01/15 06:38:48;;;;;;;0.00;0.00;;;;;;;;;;5052444;28;20286;-73
2023/01/15 06:49:35;;;;;;;0.00;0.00;;;;;;;;;;5052202;28;20210;-73
2023/01/15 06:52:02;;;;;;;1.17;0.10;;;;;;;;;;5051597;28;20253;-73
2023/01/15 06:54:30;;;;;;;0.10;0.10;;;;;;;;;;5051976;28;20575;-73
2023/01/15 06:56:57;;;;;;;0.10;0.10;;;;;;;;;;5051415;28;20235;-73
2023/01/15 06:59:24;;;;;;;0.27;0.10;;;;;;;;;;5052356;28;20689;-73
2023/01/15 07:01:52;;;;;;;0.00;0.00;;;;;;;;;;5070721;28;20268;-73
2023/01/15 07:04:19;;;;;;;0.00;0.00;;;;;;;;;;5055680;28;20207;-73
2023/01/15 07:06:47;;;;;;;2.10;0.40;;;;;;;;;;5052425;28;20200;-73
2023/01/15 07:09:14;;;;;;;0.00;0.00;;;;;;;;;;5070698;28;20859;-73
2023/01/15 07:11:48;;;;;;;0.00;0.00;;;;;;;;;;5064807;28;20210;-73
2023/01/15 07:14:15;;;;;;;0.33;0.30;;;;;;;;;;5069017;28;20199;-73
2023/01/15 07:16:42;;;;;;;0.10;0.10;;;;;;;;;;5052704;28;20212;-73
2023/01/15 07:19:10;;;;;;;0.00;0.00;;;;;;;;;;5052874;28;20215;-73
2023/01/15 07:21:37;;;;;;;0.00;0.00;;;;;;;;;;5069735;28;20276;-73
2023/01/15 07:24:05;;;;;;;0.10;0.10;;;;;;;;;;5053804;28;20265;-73
2023/01/15 07:26:32;;;;;;;0.00;0.00;;;;;;;;;;5063809;28;20207;-73
2023/01/15 07:28:59;;;;;;;0.33;0.10;;;;;;;;;;5060338;28;20214;-73
2023/01/15 07:31:26;;;;;;;0.00;0.00;;;;;;;;;;5055145;28;20196;-73
2023/01/15 07:33:53;;;;;;;0.00;0.00;;;;;;;;;;5051926;28;20206;-73
2023/01/15 07:36:21;;;;;;;0.00;0.00;;;;;;;;;;5066731;28;20207;-73
2023/01/15 07:38:49;;;;;;;0.00;0.00;;;;;;;;;;5056686;28;20692;-73
2023/01/15 07:49:45;;;;;;;0.00;0.00;;;;;;;;;;5053568;28;20279;-73
2023/01/15 07:52:14;;;;;;;0.00;0.00;;;;;;;;;;5064467;28;20199;-73
2023/01/15 07:54:41;;;;;;;0.00;0.00;;;;;;;;;;5051110;28;20211;-73
2023/01/15 07:57:08;;;;;;;0.00;0.00;;;;;;;;;;5050513;28;20226;-70
2023/01/15 07:59:35;;;;;;;0.00;0.00;;;;;;;;;;5060561;28;20214;-74
2023/01/15 08:02:02;;;;;;;0.00;0.00;;;;;;;;;;5069460;28;20297;-71
2023/01/15 08:04:46;;;;;;;0.10;0.10;;;;;;;;;;5068769;28;20215;-74
2023/01/15 08:07:15;;;;;;;0.03;0.03;;;;;;;;;;5064255;28;20210;-73
2023/01/15 08:09:42;;;;;;;0.07;0.07;;;;;;;;;;5068917;28;20671;-74
2023/01/15 08:15:13;;;;;;;0.10;0.10;;;;;;;;;;5050604;28;20210;-74
2023/01/15 08:17:41;;;;;;;0.17;0.10;;;;;;;;;;5069578;28;20199;-73
2023/01/15 08:20:09;;;;;;;0.00;0.00;;;;;;;;;;5070769;28;20214;-74
2023/01/15 08:22:38;;;;;;;0.00;0.00;;;;;;;;;;5070666;28;20226;-74
2023/01/15 08:25:06;;;;;;;0.10;0.10;;;;;;;;;;5069807;28;20286;-74
2023/01/15 08:27:33;;;;;;;1.17;0.20;;;;;;;;;;5070557;28;20309;-74
2023/01/15 08:30:00;;;;;;;2.03;0.30;;;;;;;;;;5068332;28;20219;-74
2023/01/15 08:32:27;;;;;;;0.40;0.40;;;;;;;;;;5060027;28;20591;-74
2023/01/15 08:34:54;;;;;;;2.50;0.60;;;;;;;;;;5061474;28;20215;-74
2023/01/15 08:37:21;;;;;;;1.10;0.40;;;;;;;;;;5064691;28;20200;-74
2023/01/15 08:39:51;;;;;;;1.63;0.60;;;;;;;;;;5050293;28;20627;-74
2023/01/15 08:42:18;;;;;;;1.07;0.70;;;;;;;;;;5053855;28;20357;-74
2023/01/15 08:44:45;;;;;;;0.50;0.50;;;;;;;;;;5070308;28;20217;-74
2023/01/15 08:47:12;;;;;;;0.30;0.30;;;;;;;;;;5051959;28;20207;-74
2023/01/15 08:49:40;;;;;;;0.10;0.10;;;;;;;;;;5055968;28;20211;-73
2023/01/15 08:52:07;;;;;;;0.10;0.00;;;;;;;;;;5067363;28;20246;-73
2023/01/15 08:54:34;;;;;;;0.10;0.10;;;;;;;;;;5065709;28;20212;-74
2023/01/15 08:57:02;;;;;;;0.07;0.07;;;;;;;;;;5049781;28;20237;-73
2023/01/15 08:59:29;;;;;;;0.10;0.10;;;;;;;;;;5058307;28;20215;-74
2023/01/15 09:01:56;;;;;;;0.00;0.00;;;;;;;;;;5070150;28;20227;-74
2023/01/15 09:04:23;;;;;;;0.20;0.20;;;;;;;;;;5068517;28;20257;-74
2023/01/15 09:06:50;;;;;;;0.10;0.10;;;;;;;;;;5069294;28;20219;-74
2023/01/15 09:09:17;;;;;;;3.40;0.20;;;;;;;;;;5069389;28;20243;-74
2023/01/15 09:11:45;;;;;;;0.00;0.00;;;;;;;;;;5070561;28;20214;-74
2023/01/15 09:14:15;;;;;;;0.00;0.00;;;;;;;;;;5068894;28;20209;-74
2023/01/15 09:16:42;;;;;;;0.20;0.10;;;;;;;;;;5065946;28;20285;-74
2023/01/15 09:19:10;;;;;;;0.00;0.00;;;;;;;;;;5068291;28;20333;-74
2023/01/15 09:21:37;;;;;;;0.00;0.00;;;;;;;;;;5049311;28;20204;-74
2023/01/15 09:24:04;;;;;;;0.00;0.00;;;;;;;;;;5049922;28;20200;-74
2023/01/15 09:26:32;;;;;;;0.00;0.00;;;;;;;;;;5049431;28;20281;-74
2023/01/15 09:29:00;;;;;;;0.10;0.10;;;;;;;;;;5049589;28;20607;-73
2023/01/15 09:31:28;;;;;;;0.10;0.10;;;;;;;;;;5047481;28;20212;-73
2023/01/15 09:33:56;;;;;;;0.10;0.00;;;;;;;;;;5065437;28;20257;-74
2023/01/15 09:36:24;;;;;;;0.00;0.00;;;;;;;;;;5050103;28;20311;-72
2023/01/15 09:38:51;;;;;;;0.07;0.07;;;;;;;;;;5050860;28;20280;-72
2023/01/15 09:44:20;;;;;;;4.83;0.10;;;;;;;;;;5053571;28;20219;-69
2023/01/15 09:46:54;;;;;;;0.10;0.10;;;;;;;;;;5052679;28;20200;-72
2023/01/15 09:49:25;;;;;;;0.10;0.10;;;;;;;;;;5052159;28;20212;-71
2023/01/15 09:51:57;;;;;;;0.00;0.00;;;;;;;;;;5046135;28;20319;-71
2023/01/15 09:54:42;;;;;;;0.50;0.07;;;;;;;;;;5052559;28;20214;-72
2023/01/15 09:57:11;;;;;;;0.10;0.10;;;;;;;;;;5068668;28;20234;-72
2023/01/15 09:59:51;;;;;;;0.00;0.00;;;;;;;;;;5050967;28;20667;-72
2023/01/15 10:02:23;;;;;;;0.00;0.00;;;;;;;;;;5049424;28;20285;-71
2023/01/15 10:04:55;;;;;;;0.10;0.10;;;;;;;;;;5046811;28;20254;-69
2023/01/15 10:07:26;;;;;;;0.10;0.10;;;;;;;;;;5045834;28;20208;-69
2023/01/15 10:12:39;;;;;;;0.17;0.17;;;;;;;;;;5047403;28;20593;-71
2023/01/15 10:15:11;;;;;;;1.80;0.10;;;;;;;;;;5047982;28;20648;-69
2023/01/15 10:17:41;;;;;;;0.10;0.10;;;;;;;;;;5048678;28;20792;-70
2023/01/15 10:20:13;;;;;;;3.30;0.10;;;;;;;;;;5049360;28;20787;-63
2023/01/15 10:22:48;;;;;;;0.20;0.20;;;;;;;;;;5048835;28;20306;-69
2023/01/15 10:25:16;;;;;;;1.03;0.10;;;;;;;;;;5052312;28;20215;-73
2023/01/15 10:27:46;;;;;;;0.10;0.10;;;;;;;;;;5050031;28;20196;-73
2023/01/15 10:30:16;;;;;;;0.10;0.10;;;;;;;;;;5062816;28;20195;-71
2023/01/15 10:32:48;;;;;;;0.10;0.10;;;;;;;;;;5069305;28;20661;-72
2023/01/15 10:35:23;;;;;;;0.10;0.10;;;;;;;;;;5060802;28;20268;-73
2023/01/15 10:37:53;;;;;;;0.00;0.00;;;;;;;;;;5068756;28;20254;-73
2023/01/15 10:40:28;;;;;;;0.40;0.20;;;;;;;;;;5053002;28;20667;-69
2023/01/15 10:42:58;;;;;;;0.10;0.10;;;;;;;;;;5055713;28;20218;-73
2023/01/15 10:45:27;;;;;;;1.03;0.20;;;;;;;;;;5062395;28;20214;-73
2023/01/15 10:47:58;;;;;;;0.10;0.10;;;;;;;;;;5053586;28;20208;-73
2023/01/15 10:50:27;;;;;;;0.10;0.10;;;;;;;;;;5064775;28;20203;-73
2023/01/15 10:53:02;;;;;;;0.00;0.00;;;;;;;;;;5066921;28;20199;-72
2023/01/15 10:55:31;;;;;;;0.07;0.07;;;;;;;;;;5059701;28;20289;-71
2023/01/15 10:58:02;;;;;;;0.20;0.20;;;;;;;;;;5053091;28;20222;-73
2023/01/15 11:00:29;;;;;;;0.10;0.10;;;;;;;;;;5061825;28;20199;-70
2023/01/15 11:03:01;;;;;;;0.03;0.03;;;;;;;;;;5071680;28;20708;-71
2023/01/15 11:05:29;;;;;;;0.10;0.10;;;;;;;;;;5057923;28;20271;-73
2023/01/15 11:07:56;;;;;;;0.10;0.10;;;;;;;;;;5052170;28;20203;-72
2023/01/15 11:10:24;;;;;;;0.00;0.00;;;;;;;;;;5071350;28;20659;-72
2023/01/15 11:21:25;;;;;;;0.00;0.00;;;;;;;;;;4994107;28;20205;-72
2023/01/15 11:23:52;;;;;;;0.53;0.00;;;;;;;;;;4999670;28;20235;-71
2023/01/15 11:26:21;;;;;;;0.00;0.00;;;;;;;;;;5022535;28;20211;-72
2023/01/15 11:28:49;;;;;;;0.00;0.00;;;;;;;;;;5051249;28;20744;-70
2023/01/15 11:31:17;;;;;;;0.07;0.07;;;;;;;;;;5051304;28;20208;-70
2023/01/15 11:33:46;;;;;;;0.40;0.40;;;;;;;;;;5068413;28;20215;-72
2023/01/15 11:36:23;;;;;;;0.87;0.40;;;;;;;;;;5063261;28;20236;-72
2023/01/15 11:38:50;;;;;;;1.90;0.20;;;;;;;;;;5059117;28;20626;-72
2023/01/15 11:41:21;;;;;;;0.30;0.30;;;;;;;;;;5050872;28;20265;-72
2023/01/15 11:52:17;;;;;;;0.00;0.00;;;;;;;;;;5061307;28;20202;-72
2023/01/15 11:54:46;;;;;;;0.10;0.10;;;;;;;;;;5050715;28;20298;-72
2023/01/15 11:57:23;;;;;;;0.10;0.10;;;;;;;;;;5057251;28;20222;-72
2023/01/15 11:59:50;;;;;;;1.20;0.20;;;;;;;;;;5070194;28;20214;-72
2023/01/15 12:02:22;;;;;;;0.20;0.20;;;;;;;;;;5062802;28;20276;-72
2023/01/15 12:04:53;;;;;;;0.37;0.30;;;;;;;;;;5050793;28;20207;-72
2023/01/15 12:07:23;;;;;;;0.17;0.17;;;;;;;;;;5057103;28;20204;-72
2023/01/15 12:10:05;;;;;;;0.20;0.20;;;;;;;;;;5069472;28;20235;-71
2023/01/15 12:12:40;;;;;;;0.10;0.10;;;;;;;;;;5052734;28;20555;-71
2023/01/15 12:15:20;;;;;;;1.40;0.30;;;;;;;;;;5061523;28;20203;-71
2023/01/15 12:18:03;;;;;;;2.50;0.60;;;;;;;;;;5051398;28;20279;-70
2023/01/15 12:20:38;;;;;;;0.20;0.20;;;;;;;;;;5059240;28;20199;-71
2023/01/15 12:23:13;;;;;;;0.80;0.20;;;;;;;;;;5053159;28;20262;-70
2023/01/15 12:25:48;;;;;;;0.53;0.20;;;;;;;;;;5057145;28;20221;-71
2023/01/15 12:28:18;;;;;;;1.50;0.30;;;;;;;;;;5058959;28;20207;-70
2023/01/15 12:30:49;;;;;;;3.20;0.30;;;;;;;;;;5069125;28;20210;-70
2023/01/15 12:33:20;;;;;;;0.10;0.10;;;;;;;;;;5066185;28;20199;-70
2023/01/15 12:35:55;;;;;;;0.47;0.20;;;;;;;;;;5053634;28;20290;-72
2023/01/15 12:38:25;;;;;;;0.73;0.20;;;;;;;;;;5056229;28;20213;-71
2023/01/15 12:40:53;;;;;;;0.20;0.00;;;;;;;;;;5060186;28;20490;-70
2023/01/15 12:46:11;;;;;;;0.70;0.03;;;;;;;;;;5057786;28;20234;-68
2023/01/15 12:48:41;;;;;;;25.20;1.53;;;;;;;;;;5049542;28;20250;-70
2023/01/15 12:51:14;;;;;;;0.00;0.00;;;;;;;;;;5061342;28;20215;-70
2023/01/15 12:56:48;;;;;;;4.07;0.30;;;;;;;;;;5045871;28;20333;-72
2023/01/15 12:59:20;;;;;;;0.70;0.70;;;;;;;;;;5057748;28;20208;-71
2023/01/15 13:01:51;;;;;;;0.20;0.10;;;;;;;;;;5057979;28;20718;-72
2023/01/15 13:04:21;;;;;;;1.10;0.10;;;;;;;;;;5062280;28;20230;-74
2023/01/15 13:06:53;;;;;;;0.10;0.10;;;;;;;;;;5075548;28;20286;-71
2023/01/15 13:12:30;;;;;;;0.37;0.30;;;;;;;;;;5050566;28;20238;-71
2023/01/15 13:14:57;;;;;;;0.20;0.20;;;;;;;;;;5052410;28;20206;-69
2023/01/15 13:17:30;;;;;;;0.30;0.30;;;;;;;;;;5064950;28;20712;-70
2023/01/15 13:20:18;;;;;;;0.10;0.10;;;;;;;;;;5052180;28;20206;-69
2023/01/15 13:22:51;;;;;;;0.53;0.30;;;;;;;;;;5046689;28;20212;-70
2023/01/15 13:25:30;;;;;;;0.30;0.30;;;;;;;;;;5055999;28;20206;-70
2023/01/15 13:28:05;;;;;;;0.20;0.20;;;;;;;;;;5055711;28;20756;-69
2023/01/15 13:30:39;;;;;;;0.20;0.20;;;;;;;;;;5056651;28;20662;-72
2023/01/15 13:33:14;;;;;;;0.37;0.30;;;;;;;;;;5049478;28;20207;-65
2023/01/15 13:35:45;;;;;;;0.20;0.20;;;;;;;;;;5065190;28;20203;-67
2023/01/15 13:38:17;;;;;;;45.90;16.00;;;;;;;;;;5055913;28;20211;-72
2023/01/15 13:40:49;;;;;;;7.13;2.40;;;;;;;;;;5051124;28;20212;-62
2023/01/15 13:43:24;;;;;;;3.87;1.57;;;;;;;;;;5067273;28;20250;-67
2023/01/15 13:45:51;;;;;;;31.57;12.03;;;;;;;;;;5060387;28;20230;-63
2023/01/15 13:48:22;;;;;;;0.83;0.60;;;;;;;;;;5048649;28;20675;-70
2023/01/15 13:50:52;;;;;;;19.57;7.23;;;;;;;;;;5065407;28;20206;-65
2023/01/15 13:53:27;;;;;;;4.80;3.13;;;;;;;;;;5050611;28;20665;-64
2023/01/15 13:55:55;;;;;;;1.70;0.77;;;;;;;;;;5058871;28;20725;-65
2023/01/15 13:58:24;;;;;;;0.37;0.30;;;;;;;;;;5068723;28;20207;-67
2023/01/15 14:01:01;;;;;;;0.23;0.23;;;;;;;;;;5060623;28;20211;-63
2023/01/15 14:03:29;;;;;;;0.30;0.30;;;;;;;;;;5052278;28;20598;-62
2023/01/15 14:05:57;;;;;;;1.40;0.67;;;;;;;;;;5061471;28;20204;-64
2023/01/15 14:08:28;;;;;;;0.53;0.40;;;;;;;;;;5059678;28;20207;-62
2023/01/15 14:10:56;;;;;;;1.23;0.40;;;;;;;;;;5052272;28;20303;-64
2023/01/15 14:13:43;;;;;;;1.73;0.70;;;;;;;;;;5054088;28;20586;-63
2023/01/15 14:16:16;;;;;;;1.00;0.50;;;;;;;;;;5053725;28;20681;-61
2023/01/15 14:18:56;;;;;;;30.33;11.33;;;;;;;;;;5062947;28;20218;-63
2023/01/15 14:21:28;;;;;;;1.70;0.33;;;;;;;;;;5066477;28;20229;-63
2023/01/15 14:24:08;;;;;;;1.43;0.33;;;;;;;;;;5070367;28;20235;-65
2023/01/15 14:26:41;;;;;;;1.13;0.27;;;;;;;;;;5049767;28;20277;-65
2023/01/15 14:29:25;;;;;;;0.90;0.47;;;;;;;;;;5052209;28;20273;-64
2023/01/15 14:31:58;;;;;;;2.53;0.47;;;;;;;;;;5060645;28;20233;-63
2023/01/15 14:34:27;;;;;;;0.93;0.40;;;;;;;;;;5067803;28;20210;-68
2023/01/15 14:36:56;;;;;;;1.67;0.60;;;;;;;;;;5060076;28;20297;-67
2023/01/15 14:39:29;;;;;;;0.50;0.30;;;;;;;;;;5071379;28;20329;-64
2023/01/15 14:44:44;;;;;;;0.60;0.40;;;;;;;;;;5068077;28;20234;-65
2023/01/15 14:47:19;;;;;;;2.27;0.47;;;;;;;;;;5059543;28;20208;-65
2023/01/15 14:49:48;;;;;;;0.40;0.30;;;;;;;;;;5064964;28;20203;-63
2023/01/15 14:52:16;;;;;;;0.33;0.23;;;;;;;;;;5052075;28;20218;-65
2023/01/15 14:54:44;;;;;;;0.97;0.27;;;;;;;;;;5062753;28;20203;-63
2023/01/15 14:57:13;;;;;;;144.73;53.23;;;;;;;;;;5057666;28;20223;-64
2023/01/15 14:59:45;;;;;;;2.00;1.60;;;;;;;;;;5057048;28;20211;-65
2023/01/15 15:02:15;;;;;;;2.33;0.20;;;;;;;;;;5065335;28;20200;-65
2023/01/15 15:04:45;;;;;;;2.63;0.33;;;;;;;;;;5054472;28;20232;-65
2023/01/15 15:07:12;;;;;;;1.13;0.30;;;;;;;;;;5061293;28;20208;-65
2023/01/15 15:09:41;;;;;;;1.27;0.13;;;;;;;;;;5058052;28;20211;-64
2023/01/15 15:12:21;;;;;;;0.10;0.10;;;;;;;;;;5062530;28;20232;-65
2023/01/15 15:14:50;;;;;;;0.10;0.10;;;;;;;;;;5060625;28;20207;-65
2023/01/15 15:17:20;;;;;;;0.40;0.30;;;;;;;;;;5060934;28;20670;-65
2023/01/15 15:19:50;;;;;;;0.40;0.20;;;;;;;;;;5051783;28;20215;-66
2023/01/15 15:22:20;;;;;;;1.70;0.60;;;;;;;;;;5065055;28;20199;-65
2023/01/15 15:24:48;;;;;;;3.47;0.93;;;;;;;;;;5062790;28;20232;-65
2023/01/15 15:27:17;;;;;;;0.50;0.50;;;;;;;;;;5060085;28;20218;-65
2023/01/15 15:29:44;;;;;;;1.60;0.30;;;;;;;;;;5061982;28;20203;-67
2023/01/15 15:32:14;;;;;;;0.43;0.20;;;;;;;;;;5059621;28;20204;-63
2023/01/15 15:34:45;;;;;;;0.13;0.13;;;;;;;;;;5056276;28;20215;-65
2023/01/15 15:37:17;;;;;;;0.50;0.50;;;;;;;;;;5058716;28;20226;-65
2023/01/15 15:39:47;;;;;;;2.47;0.50;;;;;;;;;;5066443;28;20745;-62
2023/01/15 15:50:41;;;;;;;0.80;0.50;;;;;;;;;;5055547;28;20269;-63
2023/01/15 15:53:16;;;;;;;0.30;0.30;;;;;;;;;;5062803;28;20289;-62
2023/01/15 15:55:45;;;;;;;0.47;0.43;;;;;;;;;;5049274;28;20231;-65
2023/01/15 15:58:16;;;;;;;0.53;0.53;;;;;;;;;;5068700;28;20230;-64
2023/01/15 16:00:45;;;;;;;1.03;0.33;;;;;;;;;;5053285;28;20243;-63
2023/01/15 16:03:19;;;;;;;2.67;1.17;;;;;;;;;;5056305;28;20211;-64
2023/01/15 16:05:55;;;;;;;0.63;0.60;;;;;;;;;;5057401;28;20227;-60
2023/01/15 16:08:22;;;;;;;2.73;0.53;;;;;;;;;;5056501;28;20230;-65
2023/01/15 16:10:51;;;;;;;0.87;0.40;;;;;;;;;;5067046;28;20619;-64
2023/01/15 16:13:23;;;;;;;0.30;0.30;;;;;;;;;;5052033;28;20208;-65